sensor_id;sensor_type;location;lat;lon;timestamp;P1;durP1;ratioP1;P2;durP2;ratioP2
30335;SDS011;17142;47.990;7.846;2023-12-04T05:39:01;15.77;;;8.55;;
30335;SDS011;17142;47.990;7.846;2023-12-04T05:41:28;18.63;;;8.98;;
30335;SDS011;17142;47.990;7.846;2023-12-04T05:43:53;18.70;;;12.67;;
30335;SDS011;17142;47.990;7.846;2023-12-04T05:46:21;10.90;;;7.70;;
30335;SDS011;17142;47.990;7.846;2023-12-04T05:48:47;12.38;;;6.80;;
30335;SDS011;17142;47.990;7.846;2023-12-04T05:51:13;7.30;;;6.20;;
30335;SDS011;17142;47.990;7.846;2023-12-04T05:53:41;11.05;;;5.95;;
30335;SDS011;17142;47.990;7.846;2023-12-04T05:56:09;18.20;;;10.25;;
30335;SDS011;17142;47.990;7.846;2023-12-04T05:58:35;15.02;;;12.35;;
30335;SDS011;17142;47.990;7.846;2023-12-04T06:01:01;9.43;;;6.00;;
30335;SDS011;17142;47.990;7.846;2023-12-04T06:03:27;19.27;;;11.25;;
30335;SDS011;17142;47.990;7.846;2023-12-04T06:05:53;14.80;;;10.80;;
30335;SDS011;17142;47.990;7.846;2023-12-04T06:08:18;16.63;;;11.50;;
30335;SDS011;17142;47.990;7.846;2023-12-04T06:10:45;18.57;;;13.00;;
30335;SDS011;17142;47.990;7.846;2023-12-04T06:13:11;18.60;;;12.73;;
30335;SDS011;17142;47.990;7.846;2023-12-04T06:15:36;18.67;;;12.60;;
30335;SDS011;17142;47.990;7.846;2023-12-04T06:18:05;18.73;;;12.37;;
30335;SDS011;17142;47.990;7.846;2023-12-04T06:20:30;19.00;;;11.65;;
30335;SDS011;17142;47.990;7.846;2023-12-04T06:22:56;21.77;;;13.77;;
30335;SDS011;17142;47.990;7.846;2023-12-04T06:25:22;17.90;;;12.63;;
30335;SDS011;17142;47.990;7.846;2023-12-04T06:27:50;22.17;;;12.88;;
30335;SDS011;17142;47.990;7.846;2023-12-04T06:30:16;21.02;;;13.75;;
30335;SDS011;17142;47.990;7.846;2023-12-04T06:32:43;22.75;;;13.25;;
30335;SDS011;17142;47.990;7.846;2023-12-04T06:35:11;21.17;;;14.13;;
30335;SDS011;17142;47.990;7.846;2023-12-04T06:37:40;22.63;;;13.10;;
30335;SDS011;17142;47.990;7.846;2023-12-04T06:40:06;20.20;;;13.35;;
30335;SDS011;17142;47.990;7.846;2023-12-04T06:42:36;22.48;;;14.85;;
30335;SDS011;17142;47.990;7.846;2023-12-04T06:45:02;50.50;;;17.50;;
30335;SDS011;17142;47.990;7.846;2023-12-04T06:47:31;27.35;;;16.73;;
30335;SDS011;17142;47.990;7.846;2023-12-04T06:49:57;29.35;;;16.63;;
30335;SDS011;17142;47.990;7.846;2023-12-04T06:52:22;21.60;;;14.70;;
30335;SDS011;17142;47.990;7.846;2023-12-04T06:54:50;30.70;;;19.00;;
30335;SDS011;17142;47.990;7.846;2023-12-04T06:57:16;30.77;;;17.95;;
30335;SDS011;17142;47.990;7.846;2023-12-04T06:59:42;27.60;;;16.83;;
30335;SDS011;17142;47.990;7.846;2023-12-04T07:02:08;33.43;;;17.37;;
30335;SDS011;17142;47.990;7.846;2023-12-04T07:04:36;26.47;;;16.43;;
30335;SDS011;17142;47.990;7.846;2023-12-04T07:07:02;26.75;;;15.70;;
30335;SDS011;17142;47.990;7.846;2023-12-04T07:09:33;27.38;;;15.60;;
30335;SDS011;17142;47.990;7.846;2023-12-04T07:11:59;20.70;;;12.98;;
30335;SDS011;17142;47.990;7.846;2023-12-04T07:14:25;20.23;;;12.20;;
30335;SDS011;17142;47.990;7.846;2023-12-04T07:16:51;18.73;;;12.00;;
30335;SDS011;17142;47.990;7.846;2023-12-04T07:19:17;8.90;;;8.07;;
30335;SDS011;17142;47.990;7.846;2023-12-04T07:21:43;14.50;;;8.40;;
30335;SDS011;17142;47.990;7.846;2023-12-04T07:24:08;16.73;;;10.27;;
30335;SDS011;17142;47.990;7.846;2023-12-04T07:26:35;17.20;;;10.57;;
30335;SDS011;17142;47.990;7.846;2023-12-04T07:29:02;9.30;;;6.90;;
30335;SDS011;17142;47.990;7.846;2023-12-04T07:31:32;18.10;;;7.68;;
30335;SDS011;17142;47.990;7.846;2023-12-04T07:33:58;4.90;;;3.10;;
30335;SDS011;17142;47.990;7.846;2023-12-04T07:36:25;2.50;;;2.38;;
30335;SDS011;17142;47.990;7.846;2023-12-04T07:38:51;1.70;;;1.60;;
30335;SDS011;17142;47.990;7.846;2023-12-04T07:41:18;7.82;;;3.67;;
30335;SDS011;17142;47.990;7.846;2023-12-04T07:43:44;3.87;;;3.00;;
30335;SDS011;17142;47.990;7.846;2023-12-04T07:46:10;3.77;;;2.63;;
30335;SDS011;17142;47.990;7.846;2023-12-04T07:48:36;1.73;;;1.63;;
30335;SDS011;17142;47.990;7.846;2023-12-04T07:51:02;3.93;;;3.53;;
30335;SDS011;17142;47.990;7.846;2023-12-04T07:53:28;2.10;;;2.00;;
30335;SDS011;17142;47.990;7.846;2023-12-04T07:55:57;4.13;;;3.35;;
30335;SDS011;17142;47.990;7.846;2023-12-04T07:58:25;6.10;;;3.37;;
30335;SDS011;17142;47.990;7.846;2023-12-04T08:00:51;9.10;;;5.00;;
30335;SDS011;17142;47.990;7.846;2023-12-04T08:03:16;20.27;;;12.57;;
30335;SDS011;17142;47.990;7.846;2023-12-04T08:05:42;26.73;;;13.23;;
30335;SDS011;17142;47.990;7.846;2023-12-04T08:08:07;26.60;;;14.87;;
30335;SDS011;17142;47.990;7.846;2023-12-04T08:10:33;17.13;;;13.70;;
30335;SDS011;17142;47.990;7.846;2023-12-04T08:13:01;23.63;;;13.80;;
30335;SDS011;17142;47.990;7.846;2023-12-04T08:15:26;25.80;;;17.10;;
30335;SDS011;17142;47.990;7.846;2023-12-04T08:17:55;29.23;;;16.10;;
30335;SDS011;17142;47.990;7.846;2023-12-04T08:20:22;22.80;;;16.10;;
30335;SDS011;17142;47.990;7.846;2023-12-04T08:22:50;27.63;;;15.15;;
30335;SDS011;17142;47.990;7.846;2023-12-04T08:25:16;25.80;;;14.97;;
30335;SDS011;17142;47.990;7.846;2023-12-04T08:27:44;23.80;;;15.43;;
30335;SDS011;17142;47.990;7.846;2023-12-04T08:30:12;27.50;;;14.33;;
30335;SDS011;17142;47.990;7.846;2023-12-04T08:32:42;22.92;;;15.80;;
30335;SDS011;17142;47.990;7.846;2023-12-04T08:35:11;21.85;;;14.73;;
30335;SDS011;17142;47.990;7.846;2023-12-04T08:37:36;25.08;;;14.43;;
30335;SDS011;17142;47.990;7.846;2023-12-04T08:40:02;19.30;;;12.63;;
30335;SDS011;17142;47.990;7.846;2023-12-04T08:42:28;24.17;;;14.43;;
30335;SDS011;17142;47.990;7.846;2023-12-04T08:44:56;23.02;;;13.57;;
30335;SDS011;17142;47.990;7.846;2023-12-04T08:47:24;27.38;;;17.30;;
30335;SDS011;17142;47.990;7.846;2023-12-04T08:49:50;22.10;;;11.80;;
30335;SDS011;17142;47.990;7.846;2023-12-04T08:52:16;13.50;;;8.80;;
30335;SDS011;17142;47.990;7.846;2023-12-04T08:54:42;8.73;;;7.33;;
30335;SDS011;17142;47.990;7.846;2023-12-04T08:57:09;7.00;;;5.13;;
30335;SDS011;17142;47.990;7.846;2023-12-04T08:59:35;14.20;;;9.03;;
30335;SDS011;17142;47.990;7.846;2023-12-04T09:02:01;9.70;;;6.73;;
30335;SDS011;17142;47.990;7.846;2023-12-04T09:04:30;1.40;;;1.30;;
30335;SDS011;17142;47.990;7.846;2023-12-04T09:06:56;2.43;;;2.23;;
30335;SDS011;17142;47.990;7.846;2023-12-04T09:09:24;2.57;;;2.00;;
30335;SDS011;17142;47.990;7.846;2023-12-04T09:11:50;1.93;;;1.83;;
30335;SDS011;17142;47.990;7.846;2023-12-04T09:14:16;2.70;;;2.50;;
30335;SDS011;17142;47.990;7.846;2023-12-04T09:16:41;4.70;;;2.83;;
30335;SDS011;17142;47.990;7.846;2023-12-04T09:19:07;4.63;;;2.50;;
30335;SDS011;17142;47.990;7.846;2023-12-04T09:21:33;3.10;;;2.73;;
30335;SDS011;17142;47.990;7.846;2023-12-04T09:24:00;4.77;;;3.30;;
30335;SDS011;17142;47.990;7.846;2023-12-04T09:26:26;5.43;;;3.40;;
30335;SDS011;17142;47.990;7.846;2023-12-04T09:28:52;5.77;;;3.37;;
30335;SDS011;17142;47.990;7.846;2023-12-04T09:31:18;9.93;;;6.10;;
30335;SDS011;17142;47.990;7.846;2023-12-04T09:33:44;10.10;;;7.83;;
30335;SDS011;17142;47.990;7.846;2023-12-04T09:36:10;14.60;;;10.10;;
30335;SDS011;17142;47.990;7.846;2023-12-04T09:38:35;12.70;;;9.37;;
30335;SDS011;17142;47.990;7.846;2023-12-04T09:41:03;15.60;;;10.10;;
30335;SDS011;17142;47.990;7.846;2023-12-04T09:43:34;21.27;;;13.70;;
30335;SDS011;17142;47.990;7.846;2023-12-04T09:46:00;26.83;;;15.40;;
30335;SDS011;17142;47.990;7.846;2023-12-04T09:48:28;26.33;;;15.90;;
30335;SDS011;17142;47.990;7.846;2023-12-04T09:50:56;21.30;;;14.50;;
30335;SDS011;17142;47.990;7.846;2023-12-04T09:53:22;29.73;;;17.70;;
30335;SDS011;17142;47.990;7.846;2023-12-04T09:55:52;32.53;;;17.70;;
30335;SDS011;17142;47.990;7.846;2023-12-04T09:58:23;34.77;;;19.47;;
30335;SDS011;17142;47.990;7.846;2023-12-04T10:00:53;27.43;;;17.40;;
30335;SDS011;17142;47.990;7.846;2023-12-04T10:03:20;27.00;;;19.37;;
30335;SDS011;17142;47.990;7.846;2023-12-04T10:05:48;28.10;;;15.77;;
30335;SDS011;17142;47.990;7.846;2023-12-04T10:08:14;18.70;;;14.23;;
30335;SDS011;17142;47.990;7.846;2023-12-04T10:10:41;26.70;;;14.47;;
30335;SDS011;17142;47.990;7.846;2023-12-04T10:13:07;17.77;;;11.20;;
30335;SDS011;17142;47.990;7.846;2023-12-04T10:15:33;17.27;;;12.00;;
30335;SDS011;17142;47.990;7.846;2023-12-04T10:18:22;11.70;;;7.77;;
30335;SDS011;17142;47.990;7.846;2023-12-04T10:20:54;16.70;;;12.87;;
30335;SDS011;17142;47.990;7.846;2023-12-04T10:23:20;22.40;;;11.10;;
30335;SDS011;17142;47.990;7.846;2023-12-04T10:25:45;19.50;;;10.30;;
30335;SDS011;17142;47.990;7.846;2023-12-04T10:28:17;7.60;;;6.10;;
30335;SDS011;17142;47.990;7.846;2023-12-04T10:30:43;10.97;;;7.60;;
30335;SDS011;17142;47.990;7.846;2023-12-04T10:33:10;14.40;;;9.63;;
30335;SDS011;17142;47.990;7.846;2023-12-04T10:35:37;16.30;;;9.70;;
30335;SDS011;17142;47.990;7.846;2023-12-04T10:38:03;12.20;;;7.53;;
30335;SDS011;17142;47.990;7.846;2023-12-04T10:40:31;16.87;;;9.77;;
30335;SDS011;17142;47.990;7.846;2023-12-04T10:45:38;4.97;;;4.47;;
30335;SDS011;17142;47.990;7.846;2023-12-04T10:48:08;11.43;;;7.93;;
30335;SDS011;17142;47.990;7.846;2023-12-04T10:50:39;10.93;;;7.33;;
30335;SDS011;17142;47.990;7.846;2023-12-04T10:53:06;5.43;;;3.73;;
30335;SDS011;17142;47.990;7.846;2023-12-04T10:55:33;6.30;;;4.60;;
30335;SDS011;17142;47.990;7.846;2023-12-04T10:57:59;7.93;;;4.20;;
30335;SDS011;17142;47.990;7.846;2023-12-04T11:00:43;4.53;;;4.13;;
30335;SDS011;17142;47.990;7.846;2023-12-04T11:03:13;8.10;;;4.13;;
30335;SDS011;17142;47.990;7.846;2023-12-04T11:06:01;8.00;;;4.10;;
30335;SDS011;17142;47.990;7.846;2023-12-04T11:08:32;14.50;;;7.30;;
30335;SDS011;17142;47.990;7.846;2023-12-04T11:11:06;16.80;;;12.43;;
30335;SDS011;17142;47.990;7.846;2023-12-04T11:13:40;28.50;;;17.30;;
30335;SDS011;17142;47.990;7.846;2023-12-04T11:16:11;17.83;;;10.20;;
30335;SDS011;17142;47.990;7.846;2023-12-04T11:19:28;9.00;;;6.70;;
30335;SDS011;17142;47.990;7.846;2023-12-04T11:22:04;7.47;;;4.90;;
30335;SDS011;17142;47.990;7.846;2023-12-04T11:24:32;14.23;;;4.80;;
30335;SDS011;17142;47.990;7.846;2023-12-04T11:26:57;5.87;;;5.27;;
30335;SDS011;17142;47.990;7.846;2023-12-04T11:29:24;10.13;;;4.83;;
30335;SDS011;17142;47.990;7.846;2023-12-04T11:31:50;6.00;;;4.70;;
30335;SDS011;17142;47.990;7.846;2023-12-04T11:34:18;4.83;;;3.60;;
30335;SDS011;17142;47.990;7.846;2023-12-04T11:36:44;6.63;;;3.37;;
30335;SDS011;17142;47.990;7.846;2023-12-04T11:39:12;3.43;;;2.40;;
30335;SDS011;17142;47.990;7.846;2023-12-04T11:41:38;3.03;;;2.27;;
30335;SDS011;17142;47.990;7.846;2023-12-04T11:44:11;2.73;;;2.13;;
30335;SDS011;17142;47.990;7.846;2023-12-04T11:46:41;4.40;;;3.20;;
30335;SDS011;17142;47.990;7.846;2023-12-04T11:51:51;3.23;;;2.20;;
30335;SDS011;17142;47.990;7.846;2023-12-04T11:54:18;5.13;;;3.20;;
30335;SDS011;17142;47.990;7.846;2023-12-04T11:59:37;1.13;;;0.93;;
30335;SDS011;17142;47.990;7.846;2023-12-04T12:02:04;2.37;;;2.00;;
30335;SDS011;17142;47.990;7.846;2023-12-04T12:04:36;2.77;;;1.77;;
30335;SDS011;17142;47.990;7.846;2023-12-04T12:07:03;8.83;;;1.87;;
30335;SDS011;17142;47.990;7.846;2023-12-04T12:09:33;4.17;;;2.17;;
30335;SDS011;17142;47.990;7.846;2023-12-04T12:12:02;3.30;;;1.70;;
30335;SDS011;17142;47.990;7.846;2023-12-04T12:14:28;2.57;;;2.00;;
30335;SDS011;17142;47.990;7.846;2023-12-04T12:16:55;3.57;;;2.13;;
30335;SDS011;17142;47.990;7.846;2023-12-04T12:19:21;4.10;;;3.13;;
30335;SDS011;17142;47.990;7.846;2023-12-04T12:21:47;3.70;;;1.57;;
30335;SDS011;17142;47.990;7.846;2023-12-04T12:24:14;2.60;;;2.03;;
30335;SDS011;17142;47.990;7.846;2023-12-04T12:26:40;1.43;;;1.13;;
30335;SDS011;17142;47.990;7.846;2023-12-04T12:29:08;2.97;;;1.40;;
30335;SDS011;17142;47.990;7.846;2023-12-04T12:31:34;3.00;;;2.80;;
30335;SDS011;17142;47.990;7.846;2023-12-04T12:34:00;5.13;;;2.90;;
30335;SDS011;17142;47.990;7.846;2023-12-04T12:36:25;3.30;;;2.60;;
30335;SDS011;17142;47.990;7.846;2023-12-04T12:38:52;4.40;;;2.33;;
30335;SDS011;17142;47.990;7.846;2023-12-04T12:41:19;13.60;;;11.17;;
30335;SDS011;17142;47.990;7.846;2023-12-04T12:43:45;17.47;;;12.20;;
30335;SDS011;17142;47.990;7.846;2023-12-04T12:46:12;21.73;;;14.70;;
30335;SDS011;17142;47.990;7.846;2023-12-04T12:48:42;14.53;;;11.63;;
30335;SDS011;17142;47.990;7.846;2023-12-04T12:51:08;21.60;;;14.87;;
30335;SDS011;17142;47.990;7.846;2023-12-04T12:53:36;19.03;;;14.57;;
30335;SDS011;17142;47.990;7.846;2023-12-04T12:56:02;21.87;;;16.43;;
30335;SDS011;17142;47.990;7.846;2023-12-04T12:58:28;22.60;;;14.43;;
30335;SDS011;17142;47.990;7.846;2023-12-04T13:00:54;22.77;;;18.07;;
30335;SDS011;17142;47.990;7.846;2023-12-04T13:03:21;22.27;;;15.50;;
30335;SDS011;17142;47.990;7.846;2023-12-04T13:05:47;19.37;;;14.60;;
30335;SDS011;17142;47.990;7.846;2023-12-04T13:08:13;21.80;;;13.33;;
30335;SDS011;17142;47.990;7.846;2023-12-04T13:10:40;19.03;;;14.70;;
30335;SDS011;17142;47.990;7.846;2023-12-04T13:13:12;18.47;;;14.77;;
30335;SDS011;17142;47.990;7.846;2023-12-04T13:15:41;18.03;;;13.33;;
30335;SDS011;17142;47.990;7.846;2023-12-04T13:18:08;12.77;;;9.57;;
30335;SDS011;17142;47.990;7.846;2023-12-04T13:20:34;10.37;;;7.43;;
30335;SDS011;17142;47.990;7.846;2023-12-04T13:23:00;10.10;;;8.63;;
30335;SDS011;17142;47.990;7.846;2023-12-04T13:25:31;10.00;;;8.20;;
30335;SDS011;17142;47.990;7.846;2023-12-04T13:27:57;14.80;;;8.50;;
30335;SDS011;17142;47.990;7.846;2023-12-04T13:30:24;12.40;;;8.00;;
30335;SDS011;17142;47.990;7.846;2023-12-04T13:32:50;10.57;;;7.07;;
30335;SDS011;17142;47.990;7.846;2023-12-04T13:35:18;12.73;;;6.60;;
30335;SDS011;17142;47.990;7.846;2023-12-04T13:37:44;14.87;;;9.17;;
30335;SDS011;17142;47.990;7.846;2023-12-04T13:40:19;7.77;;;5.60;;
30335;SDS011;17142;47.990;7.846;2023-12-04T13:42:51;12.33;;;7.77;;
30335;SDS011;17142;47.990;7.846;2023-12-04T13:45:38;20.03;;;9.23;;
30335;SDS011;17142;47.990;7.846;2023-12-04T13:48:06;61.90;;;18.80;;
30335;SDS011;17142;47.990;7.846;2023-12-04T13:50:31;9.73;;;6.80;;
30335;SDS011;17142;47.990;7.846;2023-12-04T13:52:57;7.80;;;4.60;;
30335;SDS011;17142;47.990;7.846;2023-12-04T13:55:25;15.30;;;8.20;;
30335;SDS011;17142;47.990;7.846;2023-12-04T13:58:09;9.07;;;6.33;;
30335;SDS011;17142;47.990;7.846;2023-12-04T14:00:51;11.00;;;7.57;;
30335;SDS011;17142;47.990;7.846;2023-12-04T14:03:19;7.97;;;4.90;;
30335;SDS011;17142;47.990;7.846;2023-12-04T14:05:45;11.90;;;7.83;;
30335;SDS011;17142;47.990;7.846;2023-12-04T14:08:11;13.80;;;9.47;;
30335;SDS011;17142;47.990;7.846;2023-12-04T14:10:36;17.90;;;11.40;;
30335;SDS011;17142;47.990;7.846;2023-12-04T14:13:02;9.67;;;6.27;;
30335;SDS011;17142;47.990;7.846;2023-12-04T14:15:28;5.67;;;3.40;;
30335;SDS011;17142;47.990;7.846;2023-12-04T14:17:56;8.57;;;3.90;;
30335;SDS011;17142;47.990;7.846;2023-12-04T14:20:22;5.80;;;3.63;;
30335;SDS011;17142;47.990;7.846;2023-12-04T14:22:50;11.03;;;3.50;;
30335;SDS011;17142;47.990;7.846;2023-12-04T14:25:16;6.20;;;2.97;;
30335;SDS011;17142;47.990;7.846;2023-12-04T14:27:42;15.53;;;9.00;;
30335;SDS011;17142;47.990;7.846;2023-12-04T14:30:10;8.00;;;7.20;;
30335;SDS011;17142;47.990;7.846;2023-12-04T14:32:39;10.83;;;8.80;;
30335;SDS011;17142;47.990;7.846;2023-12-04T14:35:07;9.70;;;8.10;;
30335;SDS011;17142;47.990;7.846;2023-12-04T14:37:35;9.90;;;6.37;;
30335;SDS011;17142;47.990;7.846;2023-12-04T14:40:01;7.13;;;5.90;;
30335;SDS011;17142;47.990;7.846;2023-12-04T14:42:29;8.83;;;7.87;;
30335;SDS011;17142;47.990;7.846;2023-12-04T14:44:55;13.60;;;8.07;;
30335;SDS011;17142;47.990;7.846;2023-12-04T14:47:23;5.90;;;3.90;;
30335;SDS011;17142;47.990;7.846;2023-12-04T14:49:51;5.73;;;3.20;;
30335;SDS011;17142;47.990;7.846;2023-12-04T14:52:20;9.67;;;5.70;;
30335;SDS011;17142;47.990;7.846;2023-12-04T14:54:47;3.83;;;3.43;;
30335;SDS011;17142;47.990;7.846;2023-12-04T14:57:15;4.33;;;3.60;;
30335;SDS011;17142;47.990;7.846;2023-12-04T14:59:43;24.17;;;12.63;;
30335;SDS011;17142;47.990;7.846;2023-12-04T15:02:28;3.60;;;2.73;;
30335;SDS011;17142;47.990;7.846;2023-12-04T15:05:02;3.23;;;1.97;;
30335;SDS011;17142;47.990;7.846;2023-12-04T15:07:34;2.27;;;2.07;;
30335;SDS011;17142;47.990;7.846;2023-12-04T15:10:05;4.03;;;3.70;;
30335;SDS011;17142;47.990;7.846;2023-12-04T15:13:09;4.97;;;2.63;;
30335;SDS011;17142;47.990;7.846;2023-12-04T15:15:37;2.20;;;1.93;;
30335;SDS011;17142;47.990;7.846;2023-12-04T15:18:21;2.10;;;1.90;;
30335;SDS011;17142;47.990;7.846;2023-12-04T15:21:06;2.03;;;1.30;;
30335;SDS011;17142;47.990;7.846;2023-12-04T15:23:32;1.53;;;1.20;;
30335;SDS011;17142;47.990;7.846;2023-12-04T15:26:00;3.87;;;1.80;;
30335;SDS011;17142;47.990;7.846;2023-12-04T15:28:26;3.40;;;3.10;;
30335;SDS011;17142;47.990;7.846;2023-12-04T15:30:52;3.23;;;1.67;;
30335;SDS011;17142;47.990;7.846;2023-12-04T15:33:18;3.90;;;2.10;;
30335;SDS011;17142;47.990;7.846;2023-12-04T15:35:45;3.27;;;1.90;;
30335;SDS011;17142;47.990;7.846;2023-12-04T15:38:11;4.23;;;2.97;;
30335;SDS011;17142;47.990;7.846;2023-12-04T15:40:39;4.10;;;1.67;;
30335;SDS011;17142;47.990;7.846;2023-12-04T15:43:09;2.70;;;1.67;;
30335;SDS011;17142;47.990;7.846;2023-12-04T15:45:37;2.30;;;1.90;;
30335;SDS011;17142;47.990;7.846;2023-12-04T15:48:03;3.90;;;3.03;;
30335;SDS011;17142;47.990;7.846;2023-12-04T15:50:31;6.00;;;2.37;;
30335;SDS011;17142;47.990;7.846;2023-12-04T15:52:57;3.83;;;2.27;;
30335;SDS011;17142;47.990;7.846;2023-12-04T15:55:26;2.03;;;1.83;;
30335;SDS011;17142;47.990;7.846;2023-12-04T15:57:52;3.03;;;2.60;;
30335;SDS011;17142;47.990;7.846;2023-12-04T16:00:23;2.47;;;1.60;;
30335;SDS011;17142;47.990;7.846;2023-12-04T16:02:49;3.50;;;2.30;;
30335;SDS011;17142;47.990;7.846;2023-12-04T16:05:18;3.27;;;1.43;;
30335;SDS011;17142;47.990;7.846;2023-12-04T16:07:46;2.50;;;1.50;;
30335;SDS011;17142;47.990;7.846;2023-12-04T16:10:13;2.87;;;2.13;;
30335;SDS011;17142;47.990;7.846;2023-12-04T16:12:41;2.93;;;1.70;;
30335;SDS011;17142;47.990;7.846;2023-12-04T16:15:09;2.10;;;1.73;;
30335;SDS011;17142;47.990;7.846;2023-12-04T16:17:38;3.87;;;2.10;;
30335;SDS011;17142;47.990;7.846;2023-12-04T16:20:04;3.10;;;2.50;;
30335;SDS011;17142;47.990;7.846;2023-12-04T16:22:39;5.63;;;2.40;;
30335;SDS011;17142;47.990;7.846;2023-12-04T16:25:08;2.90;;;1.77;;
30335;SDS011;17142;47.990;7.846;2023-12-04T16:27:43;4.10;;;2.37;;
30335;SDS011;17142;47.990;7.846;2023-12-04T16:30:13;3.53;;;2.50;;
30335;SDS011;17142;47.990;7.846;2023-12-04T16:32:39;3.33;;;2.30;;
30335;SDS011;17142;47.990;7.846;2023-12-04T16:35:07;4.50;;;2.57;;
30335;SDS011;17142;47.990;7.846;2023-12-04T16:37:38;3.30;;;2.60;;
30335;SDS011;17142;47.990;7.846;2023-12-04T16:40:05;6.97;;;2.50;;
30335;SDS011;17142;47.990;7.846;2023-12-04T16:42:34;4.10;;;2.17;;
30335;SDS011;17142;47.990;7.846;2023-12-04T16:45:00;3.20;;;1.80;;
30335;SDS011;17142;47.990;7.846;2023-12-04T16:47:25;4.43;;;1.70;;
30335;SDS011;17142;47.990;7.846;2023-12-04T16:49:51;2.40;;;2.10;;
30335;SDS011;17142;47.990;7.846;2023-12-04T16:52:17;3.80;;;1.93;;
30335;SDS011;17142;47.990;7.846;2023-12-04T16:54:42;2.60;;;2.07;;
30335;SDS011;17142;47.990;7.846;2023-12-04T16:57:08;2.60;;;2.27;;
30335;SDS011;17142;47.990;7.846;2023-12-04T16:59:34;3.60;;;2.00;;
30335;SDS011;17142;47.990;7.846;2023-12-04T17:02:00;2.47;;;2.27;;
30335;SDS011;17142;47.990;7.846;2023-12-04T17:04:26;14.30;;;1.83;;
30335;SDS011;17142;47.990;7.846;2023-12-04T17:06:51;3.20;;;1.70;;
30335;SDS011;17142;47.990;7.846;2023-12-04T17:09:19;4.93;;;2.50;;
30335;SDS011;17142;47.990;7.846;2023-12-04T17:11:45;2.30;;;1.43;;
30335;SDS011;17142;47.990;7.846;2023-12-04T17:14:11;2.90;;;2.00;;
30335;SDS011;17142;47.990;7.846;2023-12-04T17:16:36;4.27;;;1.57;;
30335;SDS011;17142;47.990;7.846;2023-12-04T17:19:02;2.30;;;2.10;;
30335;SDS011;17142;47.990;7.846;2023-12-04T17:21:28;5.60;;;2.63;;
30335;SDS011;17142;47.990;7.846;2023-12-04T17:23:56;3.53;;;2.23;;
30335;SDS011;17142;47.990;7.846;2023-12-04T17:26:22;5.17;;;2.50;;
30335;SDS011;17142;47.990;7.846;2023-12-04T17:28:50;3.40;;;2.37;;
30335;SDS011;17142;47.990;7.846;2023-12-04T17:31:16;5.83;;;3.00;;
30335;SDS011;17142;47.990;7.846;2023-12-04T17:33:41;5.20;;;3.00;;
30335;SDS011;17142;47.990;7.846;2023-12-04T17:36:07;19.57;;;7.67;;
30335;SDS011;17142;47.990;7.846;2023-12-04T17:38:35;55.83;;;31.23;;
30335;SDS011;17142;47.990;7.846;2023-12-04T17:41:01;20.80;;;16.97;;
30335;SDS011;17142;47.990;7.846;2023-12-04T17:43:30;12.53;;;5.67;;
30335;SDS011;17142;47.990;7.846;2023-12-04T17:45:57;4.33;;;3.50;;
30335;SDS011;17142;47.990;7.846;2023-12-04T17:48:26;5.77;;;4.40;;
30335;SDS011;17142;47.990;7.846;2023-12-04T17:50:52;6.83;;;4.93;;
30335;SDS011;17142;47.990;7.846;2023-12-04T17:53:20;6.73;;;4.00;;
30335;SDS011;17142;47.990;7.846;2023-12-04T17:55:46;5.20;;;4.70;;
30335;SDS011;17142;47.990;7.846;2023-12-04T17:58:13;8.27;;;5.70;;
30335;SDS011;17142;47.990;7.846;2023-12-04T18:00:40;14.97;;;6.30;;
30335;SDS011;17142;47.990;7.846;2023-12-04T18:03:07;12.77;;;9.00;;
30335;SDS011;17142;47.990;7.846;2023-12-04T18:05:35;14.23;;;9.83;;
30335;SDS011;17142;47.990;7.846;2023-12-04T18:08:01;16.93;;;10.60;;
30335;SDS011;17142;47.990;7.846;2023-12-04T18:10:29;14.70;;;9.97;;
30335;SDS011;17142;47.990;7.846;2023-12-04T18:12:55;14.57;;;9.63;;
30335;SDS011;17142;47.990;7.846;2023-12-04T18:15:20;16.47;;;9.13;;
30335;SDS011;17142;47.990;7.846;2023-12-04T18:17:46;13.47;;;7.77;;
30335;SDS011;17142;47.990;7.846;2023-12-04T18:20:12;9.63;;;7.97;;
30335;SDS011;17142;47.990;7.846;2023-12-04T18:22:40;40.83;;;23.10;;
30335;SDS011;17142;47.990;7.846;2023-12-04T18:25:06;21.13;;;12.03;;
30335;SDS011;17142;47.990;7.846;2023-12-04T18:27:33;21.33;;;14.10;;
30335;SDS011;17142;47.990;7.846;2023-12-04T18:29:59;16.80;;;11.90;;
30335;SDS011;17142;47.990;7.846;2023-12-04T18:32:25;21.30;;;14.07;;
30335;SDS011;17142;47.990;7.846;2023-12-04T18:34:51;20.70;;;13.17;;
30335;SDS011;17142;47.990;7.846;2023-12-04T18:37:23;20.83;;;15.20;;
30335;SDS011;17142;47.990;7.846;2023-12-04T18:40:11;16.80;;;13.33;;
30335;SDS011;17142;47.990;7.846;2023-12-04T18:42:38;20.77;;;13.87;;
30335;SDS011;17142;47.990;7.846;2023-12-04T18:45:04;21.30;;;15.17;;
30335;SDS011;17142;47.990;7.846;2023-12-04T18:47:32;19.63;;;11.60;;
30335;SDS011;17142;47.990;7.846;2023-12-04T18:50:00;14.60;;;11.10;;
30335;SDS011;17142;47.990;7.846;2023-12-04T18:52:28;16.43;;;10.30;;
30335;SDS011;17142;47.990;7.846;2023-12-04T18:54:56;15.70;;;11.00;;
30335;SDS011;17142;47.990;7.846;2023-12-04T18:57:23;16.53;;;12.10;;
30335;SDS011;17142;47.990;7.846;2023-12-04T18:59:49;16.00;;;13.00;;
30335;SDS011;17142;47.990;7.846;2023-12-04T19:02:15;15.90;;;10.60;;
30335;SDS011;17142;47.990;7.846;2023-12-04T19:04:40;15.80;;;11.60;;
30335;SDS011;17142;47.990;7.846;2023-12-04T19:07:06;14.97;;;10.97;;
30335;SDS011;17142;47.990;7.846;2023-12-04T19:09:36;15.13;;;11.60;;
30335;SDS011;17142;47.990;7.846;2023-12-04T19:12:02;18.40;;;12.03;;
30335;SDS011;17142;47.990;7.846;2023-12-04T19:14:28;14.17;;;10.83;;
30335;SDS011;17142;47.990;7.846;2023-12-04T19:16:56;12.50;;;10.17;;
30335;SDS011;17142;47.990;7.846;2023-12-04T19:19:24;20.20;;;11.60;;
30335;SDS011;17142;47.990;7.846;2023-12-04T19:21:49;18.50;;;12.00;;
30335;SDS011;17142;47.990;7.846;2023-12-04T19:24:15;20.20;;;13.40;;
30335;SDS011;17142;47.990;7.846;2023-12-04T19:26:41;18.03;;;11.97;;
30335;SDS011;17142;47.990;7.846;2023-12-04T19:29:11;19.80;;;14.70;;
30335;SDS011;17142;47.990;7.846;2023-12-04T19:31:37;23.60;;;13.63;;
30335;SDS011;17142;47.990;7.846;2023-12-04T19:34:03;22.77;;;15.13;;
30335;SDS011;17142;47.990;7.846;2023-12-04T19:36:29;19.53;;;15.53;;
30335;SDS011;17142;47.990;7.846;2023-12-04T19:38:57;20.63;;;15.60;;
30335;SDS011;17142;47.990;7.846;2023-12-04T19:41:32;25.00;;;16.67;;
30335;SDS011;17142;47.990;7.846;2023-12-04T19:43:57;21.53;;;15.57;;
30335;SDS011;17142;47.990;7.846;2023-12-04T19:46:23;19.30;;;15.13;;
30335;SDS011;17142;47.990;7.846;2023-12-04T19:48:49;12.17;;;10.87;;
30335;SDS011;17142;47.990;7.846;2023-12-04T19:51:14;15.30;;;11.30;;
30335;SDS011;17142;47.990;7.846;2023-12-04T19:53:40;15.20;;;8.63;;
30335;SDS011;17142;47.990;7.846;2023-12-04T19:56:09;8.10;;;6.87;;
30335;SDS011;17142;47.990;7.846;2023-12-04T19:58:35;8.70;;;6.07;;
30335;SDS011;17142;47.990;7.846;2023-12-04T20:01:01;7.33;;;4.70;;
30335;SDS011;17142;47.990;7.846;2023-12-04T20:03:27;3.83;;;3.40;;
30335;SDS011;17142;47.990;7.846;2023-12-04T20:05:54;6.17;;;2.67;;
30335;SDS011;17142;47.990;7.846;2023-12-04T20:08:22;3.90;;;2.80;;
30335;SDS011;17142;47.990;7.846;2023-12-04T20:10:48;9.93;;;3.40;;
30335;SDS011;17142;47.990;7.846;2023-12-04T20:13:13;5.53;;;2.80;;
30335;SDS011;17142;47.990;7.846;2023-12-04T20:15:41;4.90;;;2.50;;
30335;SDS011;17142;47.990;7.846;2023-12-04T20:18:07;2.83;;;2.17;;
30335;SDS011;17142;47.990;7.846;2023-12-04T20:20:33;1.37;;;1.20;;
30335;SDS011;17142;47.990;7.846;2023-12-04T20:22:59;2.30;;;1.23;;
30335;SDS011;17142;47.990;7.846;2023-12-04T20:25:27;1.60;;;1.50;;